createdAt,value
2022-09-06T00:01:16.146Z,95687.44
2022-09-06T00:04:05.865Z,95694.00
2022-09-06T00:06:46.304Z,95696.41
2022-09-06T00:13:16.108Z,95697.22
2022-09-06T00:23:07.781Z,95691.91
2022-09-06T00:29:21.598Z,95692.16
2022-09-06T00:32:53.331Z,95687.59
2022-09-06T00:36:14.061Z,95686.28
2022-09-06T00:39:01.709Z,95692.84
2022-09-06T00:46:35.864Z,95689.59
2022-09-06T00:49:08.753Z,95701.91
2022-09-06T00:52:17.008Z,95692.75
2022-09-06T00:54:46.828Z,95693.91
2022-09-06T00:57:17.127Z,95700.28
2022-09-06T00:59:47.132Z,95697.84
2022-09-06T01:02:15.630Z,95697.31
2022-09-06T01:04:45.988Z,95700.06
2022-09-06T01:07:22.277Z,95699.84
2022-09-06T01:10:05.951Z,95703.19
2022-09-06T01:12:45.983Z,95699.41
2022-09-06T01:15:24.049Z,95703.56
2022-09-06T01:18:01.985Z,95708.28
2022-09-06T01:20:57.272Z,95706.44
2022-09-06T01:23:55.669Z,95703.50
2022-09-06T01:26:46.984Z,95711.47
2022-09-06T01:29:27.640Z,95711.97
2022-09-06T01:32:02.473Z,95703.00
2022-09-06T01:34:36.206Z,95709.94
2022-09-06T01:37:11.204Z,95710.22
2022-09-06T01:39:42.582Z,95713.78
2022-09-06T01:42:14.360Z,95714.88
2022-09-06T01:44:46.550Z,95718.19
2022-09-06T01:47:29.844Z,95714.94
2022-09-06T01:50:25.248Z,95722.88
2022-09-06T01:53:03.604Z,95717.22
2022-09-06T01:55:38.568Z,95717.03
2022-09-06T01:58:29.231Z,95712.06
2022-09-06T02:01:06.963Z,95718.63
2022-09-06T02:03:43.508Z,95714.34
2022-09-06T02:06:16.013Z,95719.28
2022-09-06T02:08:48.270Z,95707.44
2022-09-06T02:11:17.504Z,95711.84
2022-09-06T02:13:51.095Z,95710.28
2022-09-06T02:16:25.690Z,95718.53
2022-09-06T02:18:58.424Z,95708.53
2022-09-06T02:21:30.686Z,95721.91
2022-09-06T02:24:01.681Z,95714.63
2022-09-06T02:26:33.677Z,95714.09
2022-09-06T02:29:07.961Z,95711.72
2022-09-06T02:31:42.210Z,95712.56
2022-09-06T02:34:14.686Z,95711.47
2022-09-06T02:36:42.740Z,95711.47
2022-09-06T02:39:10.986Z,95714.78
2022-09-06T02:41:40.352Z,95708.00
2022-09-06T02:44:08.399Z,95706.38
2022-09-06T02:46:37.592Z,95701.75
2022-09-06T02:49:05.374Z,95703.66
2022-09-06T02:51:37.859Z,95709.16
2022-09-06T02:54:06.529Z,95722.03
2022-09-06T02:56:36.490Z,95718.78
2022-09-06T02:59:05.459Z,95722.38
2022-09-06T03:01:33.637Z,95718.59
2022-09-06T03:04:03.300Z,95718.13
2022-09-06T03:06:34.096Z,95714.56
2022-09-06T03:09:02.054Z,95719.69
2022-09-06T03:11:29.929Z,95720.50
2022-09-06T03:13:59.338Z,95716.50
2022-09-06T03:16:27.236Z,95711.34
2022-09-06T03:18:57.897Z,95712.97
2022-09-06T03:21:27.092Z,95707.28
2022-09-06T03:23:54.874Z,95707.56
2022-09-06T03:26:22.776Z,95703.78
2022-09-06T03:28:51.281Z,95693.78
2022-09-06T03:31:21.426Z,95703.03
2022-09-06T03:33:51.057Z,95698.72
2022-09-06T03:36:18.865Z,95696.56
2022-09-06T03:38:51.159Z,95697.94
2022-09-06T03:41:18.935Z,95684.63
2022-09-06T03:43:46.726Z,95692.56
2022-09-06T03:46:14.688Z,95684.44
2022-09-06T03:48:42.584Z,95690.50
2022-09-06T03:51:10.339Z,95693.78
2022-09-06T03:53:38.218Z,95690.53
2022-09-06T03:56:07.928Z,95697.03
2022-09-06T03:58:35.670Z,95703.56
2022-09-06T04:01:05.947Z,95698.13
2022-09-06T04:03:34.636Z,95703.31
2022-09-06T04:06:02.465Z,95693.25
2022-09-06T04:08:30.670Z,95699.44
2022-09-06T04:11:00.367Z,95694.59
2022-09-06T04:13:30.591Z,95700.56
2022-09-06T04:15:58.966Z,95712.81
2022-09-06T04:18:27.225Z,95715.53
2022-09-06T04:20:57.022Z,95704.97
2022-09-06T04:23:26.923Z,95703.63
2022-09-06T04:26:00.304Z,95698.47
2022-09-06T04:28:29.869Z,95700.72
2022-09-06T04:31:03.953Z,95697.47
2022-09-06T04:33:34.125Z,95698.56
2022-09-06T04:36:03.580Z,95705.53
2022-09-06T04:38:33.243Z,95703.91
2022-09-06T04:41:01.065Z,95705.53
2022-09-06T04:43:30.248Z,95706.06
2022-09-06T04:46:03.215Z,95708.25
2022-09-06T04:48:31.149Z,95709.88
2022-09-06T04:50:58.957Z,95709.59
2022-09-06T04:53:28.399Z,95709.59
2022-09-06T04:55:58.236Z,95716.38
2022-09-06T04:58:26.448Z,95721.53
2022-09-06T05:00:55.888Z,95715.00
2022-09-06T05:03:26.579Z,95712.81
2022-09-06T05:05:54.334Z,95711.72
2022-09-06T05:08:22.246Z,95713.53
2022-09-06T05:10:52.760Z,95709.72
2022-09-06T05:13:20.533Z,95710.25
2022-09-06T05:15:48.363Z,95721.13
2022-09-06T05:18:17.539Z,95722.19
2022-09-06T05:20:47.964Z,95729.22
2022-09-06T05:23:15.799Z,95724.28
2022-09-06T05:25:43.558Z,95735.97
2022-09-06T05:28:11.341Z,95732.38
2022-09-06T05:30:42.071Z,95736.97
2022-09-06T05:33:09.964Z,95732.00
2022-09-06T05:35:39.612Z,95745.25
2022-09-06T05:38:07.426Z,95741.59
2022-09-06T05:40:35.566Z,95752.31
2022-09-06T05:43:03.372Z,95759.28
2022-09-06T05:45:31.273Z,95761.22
2022-09-06T05:47:59.088Z,95760.97
2022-09-06T05:50:27.089Z,95760.91
2022-09-06T05:52:56.333Z,95769.72
2022-09-06T05:55:24.118Z,95782.41
2022-09-06T05:57:51.866Z,95781.69
2022-09-06T06:00:19.853Z,95772.91
2022-09-06T06:02:49.262Z,95780.78
2022-09-06T06:05:17.847Z,95787.31
2022-09-06T06:07:45.863Z,95787.88
2022-09-06T06:10:14.977Z,95784.97
2022-09-06T06:12:42.864Z,95789.56
2022-09-06T06:15:14.546Z,95794.47
2022-09-06T06:17:42.383Z,95796.97
2022-09-06T06:20:10.983Z,95783.81
2022-09-06T06:22:39.080Z,95785.78
2022-09-06T06:25:07.332Z,95782.47
2022-09-06T06:27:37.187Z,95785.50
2022-09-06T06:30:05.993Z,95784.88
2022-09-06T06:32:33.795Z,95783.13
2022-09-06T06:35:01.566Z,95787.66
2022-09-06T06:37:29.534Z,95791.09
2022-09-06T06:39:57.357Z,95799.31
2022-09-06T06:42:25.344Z,95789.88
2022-09-06T06:44:54.536Z,95790.59
2022-09-06T06:47:22.396Z,95799.00
2022-09-06T06:49:50.171Z,95801.31
2022-09-06T06:52:18.042Z,95800.22
2022-09-06T06:54:45.831Z,95816.75
2022-09-06T06:57:13.640Z,95811.44
2022-09-06T06:59:41.495Z,95813.69
2022-09-06T07:02:10.777Z,95813.19
2022-09-06T07:04:38.598Z,95813.03
2022-09-06T07:12:42.128Z,95806.53
2022-09-06T07:15:10.610Z,95796.59
2022-09-06T07:17:39.790Z,95797.44
2022-09-06T07:22:40.484Z,95808.31
2022-09-06T07:25:15.294Z,95807.44
2022-09-06T07:30:14.890Z,95817.97
2022-09-06T07:32:47.091Z,95814.09
2022-09-06T07:35:14.970Z,95826.47
2022-09-06T07:37:42.845Z,95823.91
2022-09-06T07:40:11.992Z,95818.25
2022-09-06T07:42:39.788Z,95817.25
2022-09-06T07:45:08.556Z,95814.53
2022-09-06T07:53:15.614Z,95815.03
2022-09-06T07:55:45.563Z,95819.00
2022-09-06T07:58:13.384Z,95821.34
2022-09-06T08:00:43.133Z,95820.59
2022-09-06T08:03:11.017Z,95810.59
2022-09-06T08:11:19.683Z,95789.41
2022-09-06T08:13:51.292Z,95778.22
2022-09-06T08:16:20.181Z,95778.19
2022-09-06T08:18:51.955Z,95773.19
2022-09-06T08:21:23.577Z,95762.69
2022-09-06T08:23:53.441Z,95756.81
2022-09-06T08:26:23.614Z,95751.81
2022-09-06T08:28:55.812Z,95749.44
2022-09-06T08:31:23.750Z,95745.69
2022-09-06T08:33:52.823Z,95736.78
2022-09-06T08:36:23.106Z,95737.91
2022-09-06T08:38:50.915Z,95736.25
2022-09-06T08:41:26.189Z,95741.31
2022-09-06T08:47:00.727Z,95733.09
2022-09-06T08:49:31.656Z,95718.50
2022-09-06T08:52:49.352Z,95730.00
2022-09-06T08:55:32.752Z,95735.31
2022-09-06T08:58:27.989Z,95729.66
2022-09-06T09:00:59.491Z,95732.44
2022-09-06T09:03:33.541Z,95735.03
2022-09-06T09:06:05.324Z,95724.81
2022-09-06T09:08:43.012Z,95732.88
2022-09-06T09:11:16.334Z,95729.72
2022-09-06T09:13:55.867Z,95721.44
2022-09-06T09:16:24.361Z,95712.88
2022-09-06T09:18:54.844Z,95700.69
2022-09-06T09:21:30.646Z,95696.47
2022-09-06T09:24:04.487Z,95699.22
2022-09-06T09:26:38.493Z,95698.72
2022-09-06T09:29:08.919Z,95698.88
2022-09-06T09:31:39.284Z,95688.72
2022-09-06T09:34:14.777Z,95682.59
2022-09-06T09:39:39.134Z,95686.53
2022-09-06T09:42:08.582Z,95693.25
2022-09-06T09:44:37.558Z,95683.16
2022-09-06T09:47:24.568Z,95682.03
2022-09-06T09:49:52.319Z,95679.38
2022-09-06T09:52:27.129Z,95676.16
2022-09-06T09:54:58.632Z,95674.94
2022-09-06T09:57:26.634Z,95674.81
2022-09-06T09:59:58.323Z,95665.78
2022-09-06T10:02:29.006Z,95661.34
2022-09-06T10:05:03.004Z,95665.75
2022-09-06T10:07:33.716Z,95653.81
2022-09-06T10:10:05.866Z,95661.56
2022-09-06T10:12:35.797Z,95652.41
2022-09-06T10:15:06.866Z,95654.75
2022-09-06T10:17:37.950Z,95660.63
2022-09-06T10:20:09.255Z,95649.44
2022-09-06T10:22:46.717Z,95651.84
2022-09-06T10:25:38.948Z,95645.06
2022-09-06T10:28:28.867Z,95643.22
2022-09-06T10:31:10.580Z,95644.69
2022-09-06T10:33:53.857Z,95640.53
2022-09-06T10:36:27.696Z,95645.41
2022-09-06T10:39:03.688Z,95640.63
2022-09-06T10:42:04.928Z,95640.38
2022-09-06T10:44:46.661Z,95632.41
2022-09-06T10:47:16.362Z,95643.41
2022-09-06T10:49:48.737Z,95635.25
2022-09-06T10:52:22.145Z,95638.66
2022-09-06T10:54:49.966Z,95644.25
2022-09-06T11:00:15.481Z,95625.13
2022-09-06T11:05:44.242Z,95614.97
2022-09-06T11:11:09.326Z,95607.28
2022-09-06T11:13:39.434Z,95600.09
2022-09-06T11:16:11.426Z,95604.91
2022-09-06T11:18:44.043Z,95601.00
2022-09-06T11:21:32.341Z,95604.19
2022-09-06T11:24:11.725Z,95597.00
2022-09-06T11:26:45.086Z,95596.63
2022-09-06T11:29:22.770Z,95589.00
2022-09-06T11:34:45.706Z,95583.44
2022-09-06T11:37:26.571Z,95581.41
2022-09-06T11:43:18.153Z,95593.00
2022-09-06T11:45:49.962Z,95586.53
2022-09-06T11:48:59.163Z,95591.41
2022-09-06T11:51:36.099Z,95591.00
2022-09-06T11:54:17.345Z,95593.44
2022-09-06T11:56:54.431Z,95585.03
2022-09-06T11:59:34.644Z,95594.91
2022-09-06T12:02:05.593Z,95584.81
2022-09-06T12:05:12.987Z,95584.88
2022-09-06T12:08:14.546Z,95585.25
2022-09-06T12:10:47.792Z,95579.72
2022-09-06T12:13:39.898Z,95578.91
2022-09-06T12:16:08.378Z,95569.66
2022-09-06T12:18:57.713Z,95576.13
2022-09-06T12:21:41.396Z,95565.75
2022-09-06T12:24:11.200Z,95563.75
2022-09-06T12:26:55.875Z,95560.56
2022-09-06T12:29:26.574Z,95556.59
2022-09-06T12:31:57.625Z,95557.81
2022-09-06T12:34:33.204Z,95550.25
2022-09-06T12:37:04.494Z,95549.50
2022-09-06T12:39:32.402Z,95543.91
2022-09-06T12:42:03.368Z,95535.91
2022-09-06T12:44:36.671Z,95540.25
2022-09-06T12:47:10.957Z,95536.72
2022-09-06T12:49:40.219Z,95537.16
2022-09-06T12:52:11.461Z,95535.16
2022-09-06T12:54:48.816Z,95538.38
2022-09-06T12:57:20.854Z,95539.94
2022-09-06T12:59:50.432Z,95533.94
2022-09-06T13:02:27.759Z,95535.97
2022-09-06T13:05:05.369Z,95535.16
2022-09-06T13:07:35.371Z,95532.31
2022-09-06T13:10:04.186Z,95535.50
2022-09-06T13:12:35.347Z,95527.13
2022-09-06T13:15:09.054Z,95527.53
2022-09-06T13:17:38.426Z,95522.75
2022-09-06T13:20:17.523Z,95518.00
2022-09-06T13:22:47.466Z,95528.34
2022-09-06T13:25:20.702Z,95520.38
2022-09-06T13:27:51.176Z,95518.00
2022-09-06T13:30:37.579Z,95511.59
2022-09-06T13:33:07.729Z,95512.78
2022-09-06T13:35:39.019Z,95512.00
2022-09-06T13:38:30.714Z,95511.22
2022-09-06T13:41:16.610Z,95498.38
2022-09-06T13:43:46.390Z,95502.03
2022-09-06T13:46:14.632Z,95487.28
2022-09-06T13:48:44.701Z,95494.84
2022-09-06T13:51:14.058Z,95480.47
2022-09-06T13:53:41.983Z,95487.59
2022-09-06T13:56:12.028Z,95492.44
2022-09-06T13:58:39.857Z,95488.88
2022-09-06T14:01:09.921Z,95488.44
2022-09-06T14:03:41.879Z,95488.06
2022-09-06T14:06:10.932Z,95487.28
2022-09-06T14:11:28.872Z,95479.69
2022-09-06T14:13:56.763Z,95470.94
2022-09-06T14:16:24.940Z,95471.34
2022-09-06T14:18:53.016Z,95459.78
2022-09-06T14:21:21.230Z,95460.16
2022-09-06T14:23:52.287Z,95461.78
2022-09-06T14:26:21.451Z,95453.78
2022-09-06T14:28:49.458Z,95470.16
2022-09-06T14:31:20.152Z,95458.56
2022-09-06T14:33:48.725Z,95468.84
2022-09-06T14:36:18.699Z,95464.44
2022-09-06T14:38:47.730Z,95468.81
2022-09-06T14:41:18.996Z,95466.81
2022-09-06T14:43:50.884Z,95461.22
2022-09-06T14:46:20.427Z,95468.81
2022-09-06T14:48:48.643Z,95466.78
2022-09-06T14:51:21.849Z,95458.41
2022-09-06T14:53:52.142Z,95462.34
2022-09-06T14:56:21.846Z,95467.09
2022-09-06T14:58:50.150Z,95463.13
2022-09-06T15:01:20.899Z,95456.75
2022-09-06T15:03:51.586Z,95448.81
2022-09-06T15:06:21.261Z,95457.16
2022-09-06T15:08:52.859Z,95448.78
2022-09-06T15:11:35.664Z,95446.44
2022-09-06T15:14:04.377Z,95444.09
2022-09-06T15:16:33.492Z,95453.69
2022-09-06T15:19:02.715Z,95443.72
2022-09-06T15:21:31.734Z,95440.56
2022-09-06T15:24:02.004Z,95442.13
2022-09-06T15:26:31.254Z,95444.91
2022-09-06T15:29:00.507Z,95444.50
2022-09-06T15:31:28.437Z,95443.63
2022-09-06T15:33:58.059Z,95438.06
2022-09-06T15:36:26.104Z,95436.84
2022-09-06T15:38:54.735Z,95431.66
2022-09-06T15:41:27.349Z,95430.91
2022-09-06T15:43:56.706Z,95433.28
2022-09-06T15:46:43.621Z,95426.06
2022-09-06T15:49:12.822Z,95414.88
2022-09-06T15:51:42.172Z,95414.41
2022-09-06T15:54:10.706Z,95414.81
2022-09-06T15:56:39.739Z,95409.63
2022-09-06T15:59:07.993Z,95409.25
2022-09-06T16:01:37.451Z,95409.19
2022-09-06T16:04:07.003Z,95415.56
2022-09-06T16:06:39.567Z,95412.72
2022-09-06T16:09:09.449Z,95410.34
2022-09-06T16:11:40.098Z,95411.53
2022-09-06T16:14:41.129Z,95418.66
2022-09-06T16:17:12.282Z,95419.44
2022-09-06T16:19:40.245Z,95420.22
2022-09-06T16:22:08.531Z,95425.69
2022-09-06T16:24:36.379Z,95421.22
2022-09-06T16:27:04.318Z,95420.34
2022-09-06T16:29:32.172Z,95424.22
2022-09-06T16:32:00.654Z,95420.56
2022-09-06T16:34:29.926Z,95417.69
2022-09-06T16:36:58.148Z,95426.41
2022-09-06T16:39:26.206Z,95428.75
2022-09-06T16:41:54.078Z,95431.13
2022-09-06T16:44:21.882Z,95425.97
2022-09-06T16:46:51.274Z,95419.94
2022-09-06T16:49:19.849Z,95427.44
2022-09-06T16:51:49.944Z,95434.94
2022-09-06T16:54:18.758Z,95431.69
2022-09-06T16:56:46.714Z,95431.47
2022-09-06T16:59:19.834Z,95425.66
2022-09-06T17:01:47.761Z,95427.94
2022-09-06T17:04:16.065Z,95424.63
2022-09-06T17:06:45.739Z,95425.72
2022-09-06T17:09:19.039Z,95423.22
2022-09-06T17:11:49.825Z,95421.06
2022-09-06T17:14:18.363Z,95419.66
2022-09-06T17:17:04.076Z,95415.91
2022-09-06T17:19:32.113Z,95421.72
2022-09-06T17:22:00.016Z,95410.47
2022-09-06T17:24:29.432Z,95407.50
2022-09-06T17:26:57.282Z,95402.84
2022-09-06T17:29:27.718Z,95403.78
2022-09-06T17:31:55.985Z,95408.19
2022-09-06T17:34:23.977Z,95410.22
2022-09-06T17:36:52.001Z,95407.91
2022-09-06T17:39:22.075Z,95414.00
2022-09-06T17:41:53.591Z,95408.94
2022-09-06T17:44:24.521Z,95417.91
2022-09-06T17:49:41.524Z,95422.38
2022-09-06T17:52:09.760Z,95439.50
2022-09-06T17:54:37.764Z,95448.25
2022-09-06T17:57:07.189Z,95452.81
2022-09-06T17:59:36.097Z,95456.91
2022-09-06T18:02:05.453Z,95454.59
2022-09-06T18:04:35.382Z,95470.81
2022-09-06T18:07:03.389Z,95466.06
2022-09-06T18:09:33.996Z,95481.44
2022-09-06T18:12:01.967Z,95489.06
2022-09-06T18:14:31.184Z,95485.38
2022-09-06T18:16:59.150Z,95499.19
2022-09-06T18:19:27.484Z,95501.50
2022-09-06T18:21:57.263Z,95484.06
2022-09-06T18:24:25.367Z,95481.88
2022-09-06T18:26:53.284Z,95483.28
2022-09-06T18:29:21.630Z,95490.69
2022-09-06T18:31:53.535Z,95497.06
2022-09-06T18:34:21.878Z,95498.94
2022-09-06T18:36:49.722Z,95498.72
2022-09-06T18:39:18.994Z,95505.53
2022-09-06T18:42:02.074Z,95499.00
2022-09-06T18:44:32.332Z,95494.44
2022-09-06T18:47:03.410Z,95496.19
2022-09-06T18:49:32.452Z,95490.22
2022-09-06T18:52:00.515Z,95483.66
2022-09-06T18:54:28.520Z,95495.94
2022-09-06T18:56:56.696Z,95495.94
2022-09-06T18:59:25.054Z,95496.66
2022-09-06T19:01:53.121Z,95491.25
2022-09-06T19:04:22.503Z,95495.41
2022-09-06T19:06:50.616Z,95491.28
2022-09-06T19:09:19.371Z,95491.47
2022-09-06T19:11:51.527Z,95488.25
2022-09-06T19:14:19.536Z,95483.34
2022-09-06T19:16:48.703Z,95485.19
2022-09-06T19:19:16.777Z,95483.22
2022-09-06T19:21:45.979Z,95485.88
2022-09-06T19:24:14.996Z,95489.19
2022-09-06T19:26:45.034Z,95483.56
2022-09-06T19:29:15.309Z,95480.22
2022-09-06T19:31:43.967Z,95485.53
2022-09-06T19:34:13.612Z,95472.66
2022-09-06T19:36:41.489Z,95481.16
2022-09-06T19:39:13.190Z,95482.28
2022-09-06T19:41:42.995Z,95480.13
2022-09-06T19:44:12.207Z,95479.75
2022-09-06T19:46:45.421Z,95468.53
2022-09-06T19:49:14.633Z,95463.69
2022-09-06T19:51:43.840Z,95475.03
2022-09-06T19:54:16.962Z,95469.53
2022-09-06T19:56:45.111Z,95471.81
2022-09-06T19:59:15.988Z,95472.25
2022-09-06T20:01:45.522Z,95462.84
2022-09-06T20:04:14.547Z,95463.88
2022-09-06T20:06:43.183Z,95459.38
2022-09-06T20:09:12.687Z,95450.66
2022-09-06T20:11:42.887Z,95445.03
2022-09-06T20:14:11.544Z,95444.00
2022-09-06T20:16:42.050Z,95447.63
2022-09-06T20:19:10.946Z,95443.56
2022-09-06T20:21:38.831Z,95456.81
2022-09-06T20:24:06.991Z,95453.13
2022-09-06T20:26:36.467Z,95447.84
2022-09-06T20:29:06.679Z,95451.94
2022-09-06T20:31:36.158Z,95454.75
2022-09-06T20:34:05.462Z,95449.94
2022-09-06T20:36:33.615Z,95440.53
2022-09-06T20:39:02.085Z,95442.84
2022-09-06T20:41:29.933Z,95427.78
2022-09-06T20:44:00.751Z,95429.94
2022-09-06T20:46:30.930Z,95437.91
2022-09-06T20:49:03.641Z,95445.06
2022-09-06T20:51:32.659Z,95439.78
2022-09-06T20:54:02.101Z,95426.72
2022-09-06T20:56:31.394Z,95430.59
2022-09-06T20:59:02.817Z,95429.44
2022-09-06T21:01:33.519Z,95422.34
2022-09-06T21:04:03.055Z,95427.25
2022-09-06T21:06:33.727Z,95418.06
2022-09-06T21:09:01.858Z,95426.16
2022-09-06T21:11:29.992Z,95418.47
2022-09-06T21:13:58.275Z,95414.78
2022-09-06T21:16:29.045Z,95412.06
2022-09-06T21:18:58.460Z,95409.72
2022-09-06T21:21:27.249Z,95410.06
2022-09-06T21:23:55.539Z,95407.31
2022-09-06T21:26:23.446Z,95406.03
2022-09-06T21:28:54.497Z,95405.22
2022-09-06T21:31:24.544Z,95399.47
2022-09-06T21:33:55.985Z,95416.59
2022-09-06T21:36:27.514Z,95414.00
2022-09-06T21:38:56.703Z,95410.25
2022-09-06T21:41:25.004Z,95414.91
2022-09-06T21:43:54.334Z,95418.19
2022-09-06T21:46:24.726Z,95420.00
2022-09-06T21:48:56.205Z,95422.75
2022-09-06T21:51:27.170Z,95421.97
2022-09-06T21:53:55.931Z,95428.28
2022-09-06T21:56:25.076Z,95434.13
2022-09-06T21:58:55.396Z,95433.34
2022-09-06T22:01:24.344Z,95434.47
2022-09-06T22:03:52.880Z,95435.94
2022-09-06T22:06:24.860Z,95435.16
2022-09-06T22:08:54.094Z,95442.09
2022-09-06T22:11:24.646Z,95437.59
2022-09-06T22:13:53.205Z,95443.59
2022-09-06T22:16:22.849Z,95436.50
2022-09-06T22:18:51.509Z,95431.66
2022-09-06T22:21:21.179Z,95437.34
2022-09-06T22:23:55.075Z,95427.66
2022-09-06T22:26:23.698Z,95428.16
2022-09-06T22:28:55.113Z,95429.47
2022-09-06T22:31:24.100Z,95430.44
2022-09-06T22:33:52.277Z,95435.75
2022-09-06T22:36:20.292Z,95425.44
2022-09-06T22:38:48.115Z,95420.13
2022-09-06T22:41:17.293Z,95421.75
2022-09-06T22:43:45.121Z,95427.22
2022-09-06T22:46:13.601Z,95428.97
2022-09-06T22:48:41.584Z,95433.47
2022-09-06T22:51:12.542Z,95436.03
2022-09-06T22:53:40.600Z,95435.06
2022-09-06T22:56:08.628Z,95433.78
2022-09-06T22:58:38.166Z,95428.16
2022-09-06T23:06:20.462Z,95417.38
2022-09-06T23:08:48.336Z,95409.97
2022-09-06T23:11:17.843Z,95415.09
2022-09-06T23:13:46.986Z,95411.56
2022-09-06T23:16:17.285Z,95404.63
2022-09-06T23:18:45.551Z,95408.31
2022-09-06T23:21:16.086Z,95401.72
2022-09-06T23:23:45.329Z,95390.13
2022-09-06T23:26:14.945Z,95399.28
2022-09-06T23:28:43.762Z,95395.25
2022-09-06T23:31:15.041Z,95396.38
2022-09-06T23:33:43.707Z,95396.88
2022-09-06T23:36:13.636Z,95398.81
2022-09-06T23:38:42.653Z,95397.34
2022-09-06T23:41:13.345Z,95382.88
2022-09-06T23:43:43.030Z,95388.03
2022-09-06T23:46:12.036Z,95390.75
2022-09-06T23:48:40.179Z,95382.88
2022-09-06T23:51:08.748Z,95386.72
2022-09-06T23:53:36.804Z,95383.69
2022-09-06T23:56:05.400Z,95377.09
2022-09-06T23:58:34.833Z,95376.75
